Time;durP1;ratioP1;P1;durP2;ratioP2;P2;SDS_P1;SDS_P2;PMS_P1;PMS_P2;Temp;Humidity;BMP_temperature;BMP_pressure;BME280_temperature;BME280_humidity;BME280_pressure;Samples;Min_cycle;Max_cycle;Signal;HPM_P1;HPM_P2
2022/01/18 00:01:15;;;;;;;23.02;10.40;;;6.00;99.90;;;;;;4972369;28;20217;-75
2022/01/18 00:03:41;;;;;;;27.17;10.13;;;6.00;99.90;;;;;;4974088;28;20236;-75
2022/01/18 00:06:06;;;;;;;27.63;9.60;;;6.00;99.90;;;;;;4974048;28;20208;-75
2022/01/18 00:08:32;;;;;;;27.47;11.13;;;6.00;99.90;;;;;;4974029;28;20412;-74
2022/01/18 00:10:58;;;;;;;22.57;9.83;;;6.00;99.90;;;;;;4973509;28;20312;-74
2022/01/18 00:18:33;;;;;;;22.45;8.88;;;6.00;99.90;;;;;;4974432;28;20181;-74
2022/01/18 00:21:14;;;;;;;32.00;10.32;;;6.00;99.90;;;;;;4972229;28;20559;-74
2022/01/18 00:23:40;;;;;;;18.98;8.77;;;6.10;99.90;;;;;;4972914;28;20282;-75
2022/01/18 00:26:08;;;;;;;30.98;9.95;;;6.10;99.90;;;;;;4973901;28;20181;-74
2022/01/18 00:28:36;;;;;;;24.02;8.32;;;6.10;99.90;;;;;;4973812;28;20180;-75
2022/01/18 00:36:26;;;;;;;16.25;6.60;;;6.10;99.90;;;;;;4976209;28;20677;-75
2022/01/18 00:38:51;;;;;;;20.00;7.05;;;6.10;99.90;;;;;;4977131;28;20184;-75
2022/01/18 00:41:20;;;;;;;37.07;14.37;;;6.10;99.90;;;;;;4976636;28;20197;-75
2022/01/18 00:43:46;;;;;;;23.60;9.00;;;6.10;99.90;;;;;;4976979;28;20204;-75
2022/01/18 00:46:13;;;;;;;21.45;6.07;;;6.20;99.90;;;;;;4975900;28;20251;-75
2022/01/18 00:48:40;;;;;;;27.55;12.45;;;6.30;99.90;;;;;;4976941;28;20671;-74
2022/01/18 00:51:10;;;;;;;24.52;9.65;;;6.40;99.90;;;;;;4976623;28;20181;-75
2022/01/18 00:53:38;;;;;;;22.95;8.73;;;6.40;99.90;;;;;;4976920;28;20196;-75
2022/01/18 00:56:17;;;;;;;22.13;9.68;;;6.30;99.90;;;;;;4976943;28;20200;-74
2022/01/18 00:58:46;;;;;;;28.50;7.43;;;6.40;99.90;;;;;;4976961;28;20183;-75
2022/01/18 01:01:13;;;;;;;23.15;7.93;;;6.30;99.90;;;;;;4976329;28;20256;-75
2022/01/18 01:03:39;;;;;;;21.60;7.15;;;6.30;99.90;;;;;;4976698;28;20197;-75
2022/01/18 01:06:07;;;;;;;24.90;8.00;;;6.50;99.90;;;;;;4976695;28;20232;-75
2022/01/18 01:08:36;;;;;;;28.55;8.85;;;6.50;99.90;;;;;;4975533;28;20181;-75
2022/01/18 01:11:04;;;;;;;20.95;7.30;;;6.50;99.90;;;;;;4976312;28;20184;-75
2022/01/18 01:13:31;;;;;;;39.95;11.85;;;6.50;99.90;;;;;;4976472;28;20210;-75
2022/01/18 01:34:47;;;;;;;26.15;6.85;;;6.60;99.90;;;;;;4976660;28;20190;-75
2022/01/18 01:43:17;;;;;;;37.67;7.20;;;6.70;99.90;;;;;;4975549;28;20196;-74
2022/01/18 01:45:43;;;;;;;26.70;7.20;;;6.70;99.90;;;;;;4973743;28;20232;-75
2022/01/18 01:48:09;;;;;;;23.97;7.13;;;6.70;99.90;;;;;;4976143;28;20177;-76
2022/01/18 01:51:09;;;;;;;32.10;6.87;;;6.60;99.90;;;;;;4975755;28;20536;-76
2022/01/18 01:53:28;;;;;;;31.33;6.80;;;6.70;99.90;;;;;;4973859;28;20291;-75
2022/01/18 01:55:54;;;;;;;23.48;5.68;;;6.60;99.90;;;;;;4975457;28;20192;-75
2022/01/18 01:58:21;;;;;;;26.83;6.70;;;6.70;99.90;;;;;;4974679;28;20240;-75
2022/01/18 02:00:51;;;;;;;22.38;6.60;;;6.70;99.90;;;;;;4975405;28;20412;-75
2022/01/18 02:03:17;;;;;;;28.85;6.95;;;6.70;99.90;;;;;;4975803;28;20209;-75
2022/01/18 02:05:43;;;;;;;19.77;7.45;;;6.70;99.90;;;;;;4975539;28;20190;-75
2022/01/18 02:08:09;;;;;;;22.55;6.70;;;6.60;99.90;;;;;;4975557;28;20181;-75
2022/01/18 02:10:36;;;;;;;21.33;6.15;;;6.60;99.90;;;;;;4975390;28;20224;-75
2022/01/18 02:13:04;;;;;;;33.60;7.72;;;6.70;99.90;;;;;;4975111;28;20193;-75
2022/01/18 02:15:30;;;;;;;23.08;6.32;;;6.60;99.90;;;;;;4975424;28;20654;-75
2022/01/18 02:23:47;;;;;;;23.52;6.85;;;6.60;99.90;;;;;;4934803;29;20315;-74
2022/01/18 02:26:12;;;;;;;26.07;6.33;;;6.60;99.90;;;;;;4934605;29;20187;-75
2022/01/18 02:28:38;;;;;;;27.50;6.30;;;6.60;99.90;;;;;;4953518;28;20691;-75
2022/01/18 02:31:03;;;;;;;28.37;6.13;;;6.60;99.90;;;;;;4973733;28;20231;-75
2022/01/18 02:33:29;;;;;;;33.10;7.23;;;6.60;99.90;;;;;;4973920;28;20251;-75
2022/01/18 02:35:55;;;;;;;26.03;7.43;;;6.60;99.90;;;;;;4975021;28;20180;-75
2022/01/18 02:38:22;;;;;;;17.57;5.73;;;6.60;99.90;;;;;;4975092;28;20180;-75
2022/01/18 02:40:47;;;;;;;21.58;5.63;;;6.60;99.90;;;;;;4974651;28;20630;-75
2022/01/18 02:45:58;;;;;;;18.45;6.00;;;6.60;99.90;;;;;;4974795;28;20629;-75
2022/01/18 02:48:25;;;;;;;31.17;8.33;;;6.60;99.90;;;;;;4974789;28;20209;-75
2022/01/18 02:50:51;;;;;;;23.80;6.15;;;6.60;99.90;;;;;;4974472;28;20173;-74
2022/01/18 02:53:17;;;;;;;23.00;6.25;;;6.60;99.90;;;;;;4973555;28;20271;-75
2022/01/18 02:55:56;;;;;;;22.47;6.23;;;6.50;99.90;;;;;;4974871;28;20214;-75
2022/01/18 02:58:29;;;;;;;25.77;5.20;;;6.50;99.90;;;;;;4974601;28;21290;-75
2022/01/18 03:03:32;;;;;;;23.58;5.90;;;6.50;99.90;;;;;;4974896;28;20239;-75
2022/01/18 03:06:00;;;;;;;18.70;6.53;;;6.50;99.90;;;;;;4973524;28;20185;-75
2022/01/18 03:08:26;;;;;;;22.02;7.50;;;6.40;99.90;;;;;;4974688;28;20178;-75
2022/01/18 03:10:51;;;;;;;31.30;5.53;;;6.40;99.90;;;;;;4974226;28;20318;-75
2022/01/18 03:13:18;;;;;;;28.33;6.40;;;6.40;99.90;;;;;;4974469;28;20481;-75
2022/01/18 03:15:44;;;;;;;18.52;6.07;;;6.40;99.90;;;;;;4974677;28;20181;-75
2022/01/18 03:18:10;;;;;;;26.80;5.80;;;6.30;99.90;;;;;;4974562;28;20650;-75
2022/01/18 03:20:37;;;;;;;24.70;5.90;;;6.40;99.90;;;;;;4974371;28;20511;-75
2022/01/18 03:23:08;;;;;;;21.10;5.97;;;6.40;99.90;;;;;;4974133;28;20565;-75
2022/01/18 03:28:09;;;;;;;16.60;5.17;;;6.40;99.90;;;;;;4974693;28;20239;-75
2022/01/18 03:30:36;;;;;;;11.98;5.75;;;6.40;99.90;;;;;;4972895;28;20544;-75
2022/01/18 03:33:04;;;;;;;25.20;7.82;;;6.30;99.90;;;;;;4974199;28;20204;-74
2022/01/18 03:35:29;;;;;;;18.60;5.72;;;6.30;99.90;;;;;;4974304;28;20192;-75
2022/01/18 03:37:55;;;;;;;26.80;7.37;;;6.40;99.90;;;;;;4974334;28;20190;-74
2022/01/18 03:40:21;;;;;;;22.33;5.90;;;6.40;99.90;;;;;;4973057;28;20642;-75
2022/01/18 03:42:48;;;;;;;14.25;5.38;;;6.40;99.90;;;;;;4973747;28;20199;-75
2022/01/18 03:45:23;;;;;;;21.73;5.78;;;6.30;99.90;;;;;;4974157;28;20228;-75
2022/01/18 03:47:49;;;;;;;16.15;5.60;;;6.30;99.90;;;;;;4974168;28;20240;-75
2022/01/18 03:50:16;;;;;;;30.30;6.67;;;6.30;99.90;;;;;;4974159;28;20206;-75
2022/01/18 03:52:43;;;;;;;22.50;6.47;;;6.30;99.90;;;;;;4973619;28;20523;-75
2022/01/18 03:55:10;;;;;;;16.42;5.85;;;6.20;99.90;;;;;;4974131;28;20181;-75
2022/01/18 03:57:37;;;;;;;27.27;7.50;;;6.30;99.90;;;;;;4974115;28;20188;-75
2022/01/18 04:00:05;;;;;;;28.55;7.55;;;6.40;99.90;;;;;;4974333;28;20590;-75
2022/01/18 04:02:32;;;;;;;24.52;7.25;;;6.40;99.90;;;;;;4973800;28;20554;-75
2022/01/18 04:04:57;;;;;;;22.65;7.35;;;6.30;99.90;;;;;;4973904;28;20566;-75
2022/01/18 04:07:23;;;;;;;20.80;6.33;;;6.20;99.90;;;;;;4974177;28;20182;-75
2022/01/18 04:09:49;;;;;;;19.60;5.90;;;6.20;99.90;;;;;;4976772;28;20219;-75
2022/01/18 04:12:14;;;;;;;21.90;6.07;;;6.20;99.90;;;;;;4977394;28;20691;-75
2022/01/18 04:14:40;;;;;;;28.07;6.53;;;6.20;99.90;;;;;;4977576;28;20191;-75
2022/01/18 04:27:36;;;;;;;24.23;8.30;;;6.20;99.90;;;;;;4978049;28;20232;-74
2022/01/18 04:30:04;;;;;;;23.33;7.13;;;6.20;99.90;;;;;;4976481;28;20184;-74
2022/01/18 04:32:30;;;;;;;21.70;8.20;;;6.20;99.90;;;;;;4977073;28;20243;-74
2022/01/18 04:34:55;;;;;;;24.70;7.63;;;6.20;99.90;;;;;;4976045;28;20185;-74
2022/01/18 04:37:21;;;;;;;33.27;7.80;;;6.20;99.90;;;;;;4977189;28;20186;-74
2022/01/18 04:39:48;;;;;;;25.00;7.70;;;6.30;99.90;;;;;;4977314;28;20649;-74
2022/01/18 04:42:19;;;;;;;23.00;6.85;;;6.20;99.90;;;;;;4975568;28;20640;-74
2022/01/18 04:50:12;;;;;;;25.45;7.70;;;6.20;99.90;;;;;;4977303;28;20189;-74
2022/01/18 04:52:38;;;;;;;27.13;8.47;;;6.10;99.90;;;;;;4976716;28;20205;-76
2022/01/18 04:55:04;;;;;;;33.63;9.00;;;6.10;99.90;;;;;;4976820;28;20642;-75
2022/01/18 05:00:15;;;;;;;23.35;8.32;;;6.10;99.90;;;;;;4976143;28;20215;-75
2022/01/18 05:02:41;;;;;;;23.60;8.07;;;6.10;99.90;;;;;;4976426;28;20694;-74
2022/01/18 05:05:09;;;;;;;24.37;10.27;;;6.10;99.90;;;;;;4976677;28;20212;-74
2022/01/18 05:07:34;;;;;;;19.77;8.52;;;6.10;99.90;;;;;;4976596;28;20416;-74
2022/01/18 05:10:00;;;;;;;27.77;8.80;;;6.10;99.90;;;;;;4976593;28;20268;-74
2022/01/18 05:12:45;;;;;;;31.47;8.33;;;6.20;99.90;;;;;;4976270;28;20697;-75
2022/01/18 05:15:35;;;;;;;27.55;9.68;;;6.10;99.90;;;;;;4976710;28;20179;-75
2022/01/18 05:23:04;;;;;;;29.75;9.90;;;6.20;99.90;;;;;;4976389;28;20205;-75
2022/01/18 05:25:33;;;;;;;33.72;8.95;;;6.20;99.90;;;;;;4976483;28;20188;-75
2022/01/18 05:28:00;;;;;;;20.73;8.98;;;6.20;99.90;;;;;;4976433;28;20666;-75
2022/01/18 05:30:30;;;;;;;29.25;8.43;;;6.20;99.90;;;;;;4976433;28;20169;-75
2022/01/18 05:32:57;;;;;;;23.92;8.18;;;6.20;99.90;;;;;;4975891;28;20205;-75
2022/01/18 05:35:23;;;;;;;24.00;8.77;;;6.10;99.90;;;;;;4976146;28;20177;-75
2022/01/18 05:37:49;;;;;;;27.47;9.10;;;6.10;99.90;;;;;;4976063;28;20255;-75
2022/01/18 05:40:17;;;;;;;20.42;8.32;;;6.20;99.90;;;;;;4976088;28;20417;-75
2022/01/18 05:42:42;;;;;;;20.85;9.10;;;6.10;99.90;;;;;;4975711;28;20200;-76
2022/01/18 05:45:09;;;;;;;20.83;8.30;;;6.10;99.90;;;;;;4974727;28;20212;-75
2022/01/18 05:47:35;;;;;;;24.70;9.32;;;6.20;99.90;;;;;;4975772;28;20540;-75
2022/01/18 05:50:02;;;;;;;33.65;9.93;;;6.20;99.90;;;;;;4975776;28;20181;-75
2022/01/18 05:52:28;;;;;;;20.65;10.27;;;6.10;99.90;;;;;;4975394;28;20263;-75
2022/01/18 05:54:53;;;;;;;26.47;9.97;;;6.20;99.90;;;;;;4975741;28;20240;-76
2022/01/18 05:57:19;;;;;;;29.33;9.70;;;6.20;99.90;;;;;;4975779;28;20424;-75
2022/01/18 05:59:46;;;;;;;36.50;9.80;;;6.20;99.90;;;;;;4975662;28;20181;-76
2022/01/18 06:02:17;;;;;;;22.55;8.85;;;6.20;99.90;;;;;;4975359;28;20479;-76
2022/01/18 06:07:28;;;;;;;31.17;11.05;;;6.10;99.90;;;;;;4976027;28;20212;-75
2022/01/18 06:09:55;;;;;;;36.53;11.67;;;6.20;99.90;;;;;;4975622;28;20589;-75
2022/01/18 06:12:26;;;;;;;34.08;9.80;;;6.10;99.90;;;;;;4975277;28;20276;-75
2022/01/18 06:14:52;;;;;;;29.90;12.32;;;6.20;99.90;;;;;;4975555;28;20204;-75
2022/01/18 06:17:17;;;;;;;30.70;12.20;;;6.20;99.90;;;;;;4975428;28;20192;-75
2022/01/18 06:19:43;;;;;;;38.00;11.57;;;6.10;99.90;;;;;;4975341;28;20328;-76
2022/01/18 06:22:09;;;;;;;24.43;9.43;;;6.10;99.90;;;;;;4974921;28;20201;-75
2022/01/18 06:24:34;;;;;;;44.33;11.63;;;6.20;99.90;;;;;;4975335;28;20344;-77
2022/01/18 06:27:00;;;;;;;20.23;10.73;;;6.10;99.90;;;;;;4974961;28;20183;-76
2022/01/18 06:29:25;;;;;;;23.50;11.33;;;6.10;99.90;;;;;;4974708;28;20177;-77
2022/01/18 06:31:51;;;;;;;33.60;13.27;;;6.10;99.90;;;;;;4971383;28;20267;-76
2022/01/18 06:34:17;;;;;;;29.03;11.90;;;6.10;99.90;;;;;;4973565;28;20192;-77
2022/01/18 06:36:43;;;;;;;28.67;12.20;;;6.10;99.90;;;;;;4975268;28;20181;-75
2022/01/18 06:39:09;;;;;;;27.00;11.10;;;6.10;99.90;;;;;;4975159;28;20421;-75
2022/01/18 06:41:35;;;;;;;30.92;10.95;;;6.10;99.90;;;;;;4974684;28;20757;-77
2022/01/18 06:44:00;;;;;;;27.60;11.70;;;6.10;99.90;;;;;;4974782;28;20208;-76
2022/01/18 06:46:26;;;;;;;27.10;10.30;;;6.10;99.90;;;;;;4974924;28;20471;-76
2022/01/18 06:48:52;;;;;;;36.20;12.00;;;6.10;99.90;;;;;;4974764;28;20185;-75
2022/01/18 06:51:17;;;;;;;34.00;11.47;;;6.20;99.90;;;;;;4974367;28;20205;-77
2022/01/18 06:53:45;;;;;;;33.83;12.40;;;6.10;99.90;;;;;;4974738;28;20180;-77
2022/01/18 06:56:15;;;;;;;31.60;11.68;;;6.10;99.90;;;;;;4974525;28;20185;-77
2022/01/18 06:58:42;;;;;;;34.80;10.68;;;6.00;99.90;;;;;;4974833;28;20180;-76
2022/01/18 07:01:09;;;;;;;29.30;11.60;;;6.00;99.90;;;;;;4974337;28;20181;-76
2022/01/18 07:03:35;;;;;;;32.50;11.85;;;5.90;99.90;;;;;;4975027;28;20201;-77
2022/01/18 07:06:00;;;;;;;27.97;12.70;;;5.90;99.90;;;;;;4974822;28;20528;-76
2022/01/18 07:08:26;;;;;;;31.33;11.73;;;6.00;99.90;;;;;;4974701;28;20506;-77
2022/01/18 07:10:52;;;;;;;38.87;11.80;;;6.00;99.90;;;;;;4974193;28;20273;-77
2022/01/18 07:13:18;;;;;;;31.13;12.27;;;6.00;99.90;;;;;;4973370;28;20188;-77
2022/01/18 07:15:43;;;;;;;28.90;11.20;;;6.00;99.90;;;;;;4974579;28;20267;-76
2022/01/18 07:18:10;;;;;;;31.53;12.17;;;6.00;99.90;;;;;;4974622;28;20223;-76
2022/01/18 07:20:37;;;;;;;30.02;12.55;;;6.00;99.90;;;;;;4974592;28;20260;-77
2022/01/18 07:23:03;;;;;;;26.45;12.82;;;6.10;99.90;;;;;;4974199;28;20199;-77
2022/01/18 07:25:28;;;;;;;29.73;12.73;;;6.00;99.90;;;;;;4974360;28;20177;-76
2022/01/18 07:27:54;;;;;;;30.70;13.00;;;6.00;99.90;;;;;;4974538;28;20499;-75
2022/01/18 07:30:19;;;;;;;32.43;14.40;;;6.00;99.90;;;;;;4974278;28;20172;-77
2022/01/18 07:32:45;;;;;;;31.77;12.60;;;6.00;99.90;;;;;;4973962;28;20594;-76
2022/01/18 07:35:12;;;;;;;34.67;14.10;;;6.00;99.90;;;;;;4974290;28;20220;-77
2022/01/18 07:37:38;;;;;;;30.67;13.13;;;6.00;99.90;;;;;;4974245;28;20177;-76
2022/01/18 07:40:05;;;;;;;33.47;12.90;;;6.00;99.90;;;;;;4974269;28;20173;-77
2022/01/18 07:42:31;;;;;;;29.40;11.25;;;6.00;99.90;;;;;;4974569;28;20627;-77
2022/01/18 07:44:57;;;;;;;24.50;12.13;;;6.00;99.90;;;;;;4978063;28;20295;-77
2022/01/18 07:47:22;;;;;;;31.70;12.52;;;5.90;99.90;;;;;;4978263;28;20417;-75
2022/01/18 07:49:49;;;;;;;25.57;11.30;;;5.90;99.90;;;;;;4978175;28;20183;-76
2022/01/18 07:52:17;;;;;;;33.40;10.85;;;5.90;99.90;;;;;;4977605;28;20735;-76
2022/01/18 07:54:43;;;;;;;37.83;11.88;;;6.00;99.90;;;;;;4977893;28;20185;-75
2022/01/18 07:57:11;;;;;;;35.33;11.60;;;6.00;99.90;;;;;;4977930;28;20548;-75
2022/01/18 07:59:36;;;;;;;24.35;11.32;;;6.00;99.90;;;;;;4976681;28;20678;-75
2022/01/18 08:02:02;;;;;;;30.63;12.17;;;6.00;99.90;;;;;;4977404;28;20247;-76
2022/01/18 08:04:28;;;;;;;31.27;12.10;;;6.10;99.90;;;;;;4977672;28;20213;-76
2022/01/18 08:06:53;;;;;;;24.80;10.77;;;6.10;99.90;;;;;;4977666;28;20453;-75
2022/01/18 08:09:19;;;;;;;26.23;10.80;;;6.10;99.90;;;;;;4977743;28;20184;-76
2022/01/18 08:11:50;;;;;;;26.10;11.88;;;6.10;99.90;;;;;;4977328;28;20713;-76
2022/01/18 08:14:17;;;;;;;35.78;13.05;;;6.10;99.90;;;;;;4977659;28;20173;-76
2022/01/18 08:16:48;;;;;;;29.83;12.93;;;6.00;99.90;;;;;;4977383;28;20283;-76
2022/01/18 08:19:15;;;;;;;30.50;11.10;;;6.00;99.90;;;;;;4977794;28;20245;-76
2022/01/18 08:21:40;;;;;;;27.60;11.20;;;6.00;99.90;;;;;;4977293;28;20262;-76
2022/01/18 08:24:06;;;;;;;34.30;11.70;;;6.10;99.90;;;;;;4977495;28;20299;-76
2022/01/18 08:26:32;;;;;;;32.30;11.10;;;6.10;99.90;;;;;;4977460;28;20264;-76
2022/01/18 08:28:57;;;;;;;22.00;10.90;;;6.10;99.90;;;;;;4977367;28;20199;-75
2022/01/18 08:31:23;;;;;;;21.57;11.13;;;6.00;99.90;;;;;;4977126;28;20200;-75
2022/01/18 08:33:48;;;;;;;28.07;11.23;;;6.00;99.90;;;;;;4977368;28;20185;-77
2022/01/18 08:36:14;;;;;;;27.47;10.07;;;6.00;99.90;;;;;;4977248;28;20187;-75
2022/01/18 08:38:40;;;;;;;47.10;13.47;;;6.10;99.90;;;;;;4977328;28;20531;-76
2022/01/18 08:41:06;;;;;;;25.57;12.93;;;6.10;99.90;;;;;;4976816;28;20605;-76
2022/01/18 08:43:36;;;;;;;40.50;14.75;;;6.20;99.90;;;;;;4977089;28;20555;-76
2022/01/18 08:46:03;;;;;;;39.38;14.10;;;6.20;99.90;;;;;;4977089;28;20536;-76
2022/01/18 08:48:29;;;;;;;32.47;13.55;;;6.10;99.90;;;;;;4975910;28;20248;-75
2022/01/18 08:50:56;;;;;;;36.80;12.90;;;6.20;99.90;;;;;;4976406;28;20676;-76
2022/01/18 08:53:21;;;;;;;35.03;14.73;;;6.20;99.90;;;;;;4976879;28;20228;-76
2022/01/18 08:55:47;;;;;;;25.27;12.70;;;6.30;99.90;;;;;;4976332;28;20633;-76
2022/01/18 08:58:13;;;;;;;30.17;13.47;;;6.30;99.90;;;;;;4976809;28;20252;-77
2022/01/18 09:00:39;;;;;;;36.63;14.43;;;6.30;99.90;;;;;;4976718;28;20175;-76
2022/01/18 09:03:06;;;;;;;33.72;14.32;;;6.30;99.90;;;;;;4976224;28;20312;-76
2022/01/18 09:05:32;;;;;;;29.67;15.32;;;6.30;99.90;;;;;;4975404;28;20201;-76
2022/01/18 09:08:04;;;;;;;30.65;13.10;;;6.30;99.90;;;;;;4975312;28;20181;-75
2022/01/18 09:10:30;;;;;;;35.08;15.27;;;6.40;99.90;;;;;;4976735;28;20176;-75
2022/01/18 09:12:55;;;;;;;31.50;15.17;;;6.50;99.90;;;;;;4976254;28;20205;-75
2022/01/18 09:15:22;;;;;;;45.70;16.60;;;6.50;99.90;;;;;;4976437;28;20181;-77
2022/01/18 09:17:47;;;;;;;40.55;17.90;;;6.50;99.90;;;;;;4975232;28;20189;-75
2022/01/18 09:20:14;;;;;;;31.43;15.63;;;6.60;99.90;;;;;;4976552;28;20522;-76
2022/01/18 09:22:44;;;;;;;50.03;16.27;;;6.70;99.90;;;;;;4976380;28;20575;-76
2022/01/18 09:25:20;;;;;;;46.47;16.85;;;6.70;99.90;;;;;;4976496;28;20231;-76
2022/01/18 09:27:46;;;;;;;42.22;17.05;;;6.70;99.90;;;;;;4976771;28;20263;-75
2022/01/18 09:30:13;;;;;;;39.58;16.13;;;6.80;99.90;;;;;;4976502;28;20181;-76
2022/01/18 09:32:39;;;;;;;42.65;18.30;;;6.80;99.90;;;;;;4975991;28;20189;-76
2022/01/18 09:35:06;;;;;;;43.17;16.70;;;6.90;99.90;;;;;;4975091;28;20558;-76
2022/01/18 09:37:33;;;;;;;26.92;17.23;;;6.90;99.90;;;;;;4976015;28;20181;-76
2022/01/18 09:39:59;;;;;;;47.83;18.88;;;6.80;99.90;;;;;;4976086;28;20188;-75
2022/01/18 09:42:33;;;;;;;44.57;19.60;;;6.80;99.90;;;;;;4975687;28;20229;-76
2022/01/18 09:45:06;;;;;;;34.60;15.88;;;6.90;99.90;;;;;;4975882;28;20210;-76
2022/01/18 09:47:32;;;;;;;38.30;18.00;;;6.90;99.90;;;;;;4975882;28;20166;-75
2022/01/18 09:49:58;;;;;;;39.97;18.67;;;7.00;99.90;;;;;;4974815;28;20228;-76
2022/01/18 09:52:24;;;;;;;35.45;15.20;;;7.00;99.90;;;;;;4975610;28;20202;-76
2022/01/18 09:54:50;;;;;;;30.70;16.53;;;7.20;99.90;;;;;;4974564;28;20180;-76
2022/01/18 09:57:15;;;;;;;27.27;15.70;;;7.30;99.90;;;;;;4975859;28;20504;-75
2022/01/18 09:59:41;;;;;;;34.10;16.30;;;7.30;99.90;;;;;;4975697;28;20227;-76
2022/01/18 10:02:10;;;;;;;35.35;16.50;;;7.30;99.90;;;;;;4974433;28;20212;-76
2022/01/18 10:04:44;;;;;;;39.33;16.63;;;7.40;99.90;;;;;;4975664;28;20214;-76
2022/01/18 10:07:10;;;;;;;33.25;15.93;;;7.40;99.90;;;;;;4974750;28;20708;-76
2022/01/18 10:09:37;;;;;;;27.23;15.32;;;7.20;99.90;;;;;;4975626;28;20259;-76
2022/01/18 10:12:02;;;;;;;33.63;15.05;;;7.30;99.90;;;;;;4975272;28;20595;-76
2022/01/18 10:14:29;;;;;;;35.93;15.57;;;7.50;99.90;;;;;;4975704;28;20264;-75
2022/01/18 10:16:55;;;;;;;35.33;14.80;;;7.50;99.90;;;;;;4974262;28;20666;-76
2022/01/18 10:19:46;;;;;;;32.10;15.13;;;7.60;99.90;;;;;;4975748;28;20188;-76
2022/01/18 10:22:19;;;;;;;37.92;16.55;;;7.60;99.90;;;;;;4975130;28;20207;-75
2022/01/18 10:24:45;;;;;;;32.63;14.88;;;7.70;99.90;;;;;;4975547;28;20228;-75
2022/01/18 10:27:13;;;;;;;28.33;15.02;;;7.80;99.90;;;;;;4975433;28;20634;-74
2022/01/18 10:29:45;;;;;;;24.05;13.70;;;7.80;99.90;;;;;;4975132;28;20181;-75
2022/01/18 10:35:04;;;;;;;24.33;12.43;;;7.80;99.90;;;;;;4975290;28;20191;-75
2022/01/18 10:37:34;;;;;;;16.52;10.70;;;7.80;99.90;;;;;;4975102;28;20266;-74
2022/01/18 10:40:04;;;;;;;24.50;12.43;;;7.60;99.90;;;;;;4973909;28;20180;-75
2022/01/18 10:42:41;;;;;;;25.38;12.25;;;7.80;99.90;;;;;;4974920;28;20611;-75
2022/01/18 10:45:19;;;;;;;26.40;13.48;;;7.90;99.90;;;;;;4975098;28;20209;-75
2022/01/18 10:47:57;;;;;;;23.70;12.55;;;8.00;99.90;;;;;;4975081;28;20168;-75
2022/01/18 10:50:23;;;;;;;28.15;12.23;;;7.80;99.90;;;;;;4974991;28;20207;-75
2022/01/18 10:52:52;;;;;;;22.73;11.65;;;7.80;99.90;;;;;;4974539;28;20201;-74
2022/01/18 10:55:23;;;;;;;24.40;13.13;;;8.00;99.90;;;;;;4975046;28;20181;-75
2022/01/18 10:57:50;;;;;;;26.70;13.13;;;7.90;99.90;;;;;;4974757;28;20190;-75
2022/01/18 11:00:24;;;;;;;29.10;14.60;;;8.00;99.90;;;;;;4973388;28;20186;-75
2022/01/18 11:02:53;;;;;;;29.65;15.07;;;8.10;99.90;;;;;;4974287;28;20571;-75
2022/01/18 11:05:26;;;;;;;25.52;13.55;;;8.20;99.90;;;;;;4974532;28;20569;-75
2022/01/18 11:07:53;;;;;;;21.83;12.95;;;8.10;99.90;;;;;;4974548;28;20179;-76
2022/01/18 11:10:22;;;;;;;22.92;13.38;;;8.10;99.90;;;;;;4974414;28;20187;-75
2022/01/18 11:12:58;;;;;;;29.67;13.45;;;8.20;99.90;;;;;;4974207;28;20597;-76
2022/01/18 11:15:26;;;;;;;21.75;13.43;;;8.40;99.90;;;;;;4974538;28;20177;-77
2022/01/18 11:18:06;;;;;;;22.85;13.25;;;8.30;99.90;;;;;;4974161;28;20199;-76
2022/01/18 11:20:36;;;;;;;27.83;14.20;;;8.30;99.90;;;;;;4973806;28;20190;-76
2022/01/18 11:23:04;;;;;;;25.45;14.45;;;8.30;99.90;;;;;;4974097;28;20205;-77
2022/01/18 11:25:30;;;;;;;25.10;12.57;;;8.10;99.90;;;;;;4974398;28;20212;-77
2022/01/18 11:27:58;;;;;;;27.13;13.00;;;8.10;99.90;;;;;;4974400;28;20209;-76
2022/01/18 11:30:27;;;;;;;22.92;13.00;;;8.30;99.90;;;;;;4973080;28;20189;-76
2022/01/18 11:32:55;;;;;;;25.30;12.98;;;8.40;99.90;;;;;;4974190;28;20196;-76
2022/01/18 11:35:58;;;;;;;27.05;14.25;;;8.60;99.90;;;;;;4974583;28;20529;-76
2022/01/18 11:38:45;;;;;;;32.13;11.98;;;8.70;99.90;;;;;;4970827;28;20199;-75
2022/01/18 11:41:22;;;;;;;24.50;12.80;;;8.70;99.90;;;;;;4974066;28;20522;-75
2022/01/18 11:43:51;;;;;;;26.27;12.50;;;8.70;99.90;;;;;;4974156;28;20784;-76
2022/01/18 11:46:19;;;;;;;22.70;12.25;;;8.80;99.90;;;;;;4974126;28;20181;-75
2022/01/18 11:48:47;;;;;;;25.15;12.68;;;8.90;99.90;;;;;;4974103;28;20184;-76
2022/01/18 11:51:17;;;;;;;25.35;13.18;;;8.80;99.90;;;;;;4973799;28;20177;-75
2022/01/18 11:56:14;;;;;;;24.23;11.15;;;9.10;99.90;;;;;;4974119;28;20195;-76
2022/01/18 11:58:43;;;;;;;26.08;11.60;;;9.00;99.90;;;;;;4973995;28;20256;-76
2022/01/18 12:01:10;;;;;;;18.23;10.82;;;8.90;99.90;;;;;;4973686;28;20185;-76
2022/01/18 12:03:48;;;;;;;17.65;11.85;;;8.90;99.90;;;;;;4972820;28;20231;-76
2022/01/18 12:06:15;;;;;;;25.48;11.18;;;8.90;99.90;;;;;;4973966;28;20180;-76
2022/01/18 12:08:43;;;;;;;28.58;11.55;;;8.80;99.90;;;;;;4973859;28;20275;-76
2022/01/18 12:11:20;;;;;;;25.42;11.13;;;8.80;99.90;;;;;;4973636;28;20543;-76
2022/01/18 12:13:47;;;;;;;20.73;11.13;;;9.00;99.90;;;;;;4973944;28;20173;-75
2022/01/18 12:16:25;;;;;;;24.55;10.40;;;8.80;99.90;;;;;;4973804;28;20223;-76
2022/01/18 12:19:04;;;;;;;22.73;10.75;;;8.70;99.90;;;;;;4973868;28;20208;-76
2022/01/18 12:21:33;;;;;;;21.08;10.85;;;8.90;99.90;;;;;;4973728;28;20273;-76
2022/01/18 12:24:14;;;;;;;23.55;10.40;;;9.20;99.90;;;;;;4973832;28;20684;-76
2022/01/18 12:26:44;;;;;;;15.48;9.45;;;9.60;99.90;;;;;;4973712;28;20173;-76
2022/01/18 12:34:36;;;;;;;18.40;9.85;;;9.70;99.90;;;;;;4977561;28;20181;-76
2022/01/18 12:37:07;;;;;;;21.00;11.80;;;9.30;99.90;;;;;;4977223;28;20176;-76
2022/01/18 12:39:55;;;;;;;22.67;12.45;;;9.40;99.90;;;;;;4977189;28;20188;-75
2022/01/18 12:45:24;;;;;;;24.20;14.63;;;9.00;99.90;;;;;;4977359;28;20220;-75
2022/01/18 12:48:02;;;;;;;32.15;16.02;;;9.10;99.90;;;;;;4977048;28;20177;-76
2022/01/18 12:50:46;;;;;;;27.60;16.15;;;9.10;99.90;;;;;;4975560;28;20574;-75
2022/01/18 12:53:18;;;;;;;27.60;14.63;;;9.20;99.90;;;;;;4976955;28;20196;-76
2022/01/18 12:55:54;;;;;;;27.85;13.77;;;9.20;99.90;;;;;;4977147;28;20169;-77
2022/01/18 12:58:32;;;;;;;25.02;11.40;;;9.30;99.90;;;;;;4977141;28;20173;-78
2022/01/18 13:01:10;;;;;;;33.33;13.07;;;9.40;99.90;;;;;;4976476;28;20247;-77
2022/01/18 13:03:48;;;;;;;22.60;13.40;;;9.30;99.90;;;;;;4976777;28;20192;-78
2022/01/18 13:06:20;;;;;;;31.70;12.85;;;9.40;99.90;;;;;;4976764;28;20239;-79
2022/01/18 13:08:48;;;;;;;24.95;14.00;;;9.40;99.90;;;;;;4976958;28;20560;-77
2022/01/18 13:11:20;;;;;;;19.75;13.10;;;9.10;99.90;;;;;;4976095;28;20312;-78
2022/01/18 13:14:00;;;;;;;27.10;12.82;;;9.30;99.90;;;;;;4976573;28;20241;-79
2022/01/18 13:27:24;;;;;;;22.90;12.65;;;8.90;99.90;;;;;;4976243;28;20169;-78
2022/01/18 13:29:52;;;;;;;23.13;12.63;;;9.00;99.90;;;;;;4975136;28;20680;-79
2022/01/18 13:32:20;;;;;;;22.35;14.27;;;9.10;99.90;;;;;;4975894;28;20200;-79
2022/01/18 13:34:49;;;;;;;29.50;14.35;;;9.30;99.90;;;;;;4976628;28;20185;-78
2022/01/18 13:37:18;;;;;;;21.50;13.38;;;9.20;99.90;;;;;;4975922;28;20173;-79
2022/01/18 13:39:50;;;;;;;23.30;13.80;;;9.10;99.90;;;;;;4976235;28;20185;-80
2022/01/18 13:42:18;;;;;;;19.27;12.45;;;9.20;99.90;;;;;;4975800;28;20207;-80
2022/01/18 13:45:12;;;;;;;21.45;12.45;;;9.00;99.90;;;;;;4976145;28;20287;-78
2022/01/18 13:47:42;;;;;;;25.02;13.10;;;9.20;99.90;;;;;;4976036;28;20229;-78
2022/01/18 13:50:45;;;;;;;28.15;10.65;;;9.20;99.90;;;;;;4974859;28;20210;-79
2022/01/18 13:53:19;;;;;;;21.80;9.75;;;9.30;99.90;;;;;;4975472;28;20193;-79
2022/01/18 13:55:52;;;;;;;19.30;8.90;;;9.40;99.90;;;;;;4975886;28;20208;-79
2022/01/18 13:58:30;;;;;;;15.07;8.10;;;9.40;99.90;;;;;;4974566;28;20190;-79
2022/01/18 14:01:20;;;;;;;21.15;8.07;;;9.30;99.90;;;;;;4975982;28;20645;-79
2022/01/18 14:03:50;;;;;;;16.20;8.82;;;9.30;99.90;;;;;;4976386;28;20228;-80
2022/01/18 14:06:17;;;;;;;22.20;8.75;;;9.30;99.90;;;;;;4976234;28;20177;-80
2022/01/18 14:08:51;;;;;;;17.33;9.20;;;9.30;99.90;;;;;;4975607;28;20179;-79
2022/01/18 14:11:22;;;;;;;14.63;8.02;;;9.40;99.90;;;;;;4975106;28;20695;-79
2022/01/18 14:13:50;;;;;;;18.80;8.23;;;9.30;99.90;;;;;;4974126;28;20281;-80
2022/01/18 14:16:24;;;;;;;18.02;9.55;;;9.30;99.90;;;;;;4975317;28;20307;-78
2022/01/18 14:19:03;;;;;;;14.65;8.57;;;9.30;99.90;;;;;;4975658;28;20188;-78
2022/01/18 14:21:37;;;;;;;21.88;8.75;;;9.10;99.90;;;;;;4978219;28;20614;-80
2022/01/18 14:24:16;;;;;;;26.50;9.38;;;9.10;99.90;;;;;;4983802;28;20185;-81
2022/01/18 14:27:04;;;;;;;15.23;8.55;;;9.10;99.90;;;;;;4993445;28;20181;-79
2022/01/18 14:29:41;;;;;;;17.27;8.80;;;9.10;99.90;;;;;;4994686;28;20164;-80